createdAt,value
2022-12-05T00:01:19.857Z,18.37
2022-12-05T00:03:47.941Z,19.30
2022-12-05T00:06:15.285Z,18.33
2022-12-05T00:08:42.560Z,19.50
2022-12-05T00:11:17.874Z,22.63
2022-12-05T00:13:45.658Z,18.23
2022-12-05T00:16:16.037Z,18.70
2022-12-05T00:18:43.418Z,19.30
2022-12-05T00:21:16.874Z,18.27
2022-12-05T00:23:44.247Z,20.13
2022-12-05T00:26:12.107Z,18.57
2022-12-05T00:28:39.650Z,19.37
2022-12-05T00:31:09.246Z,18.47
2022-12-05T00:33:36.018Z,19.47
2022-12-05T00:36:08.165Z,19.87
2022-12-05T00:38:35.409Z,19.47
2022-12-05T00:41:06.818Z,18.70
2022-12-05T00:43:34.954Z,18.00
2022-12-05T00:46:12.807Z,19.00
2022-12-05T00:48:40.082Z,18.57
2022-12-05T00:51:15.621Z,18.43
2022-12-05T00:53:43.170Z,18.13
2022-12-05T00:56:13.086Z,19.47
2022-12-05T00:58:40.492Z,19.60
2022-12-05T01:01:12.263Z,20.17
2022-12-05T01:03:39.645Z,20.43
2022-12-05T01:06:07.058Z,19.40
2022-12-05T01:08:35.177Z,18.33
2022-12-05T01:11:02.969Z,19.13
2022-12-05T01:13:30.194Z,18.87
2022-12-05T01:15:57.769Z,17.63
2022-12-05T01:18:25.139Z,19.00
2022-12-05T01:20:52.013Z,17.43
2022-12-05T01:23:19.148Z,19.23
2022-12-05T01:25:48.332Z,20.17
2022-12-05T01:28:16.005Z,19.33
2022-12-05T01:30:47.180Z,18.20
2022-12-05T01:33:14.004Z,18.33
2022-12-05T01:35:41.841Z,18.17
2022-12-05T01:38:10.498Z,17.23
2022-12-05T01:40:37.430Z,18.10
2022-12-05T01:43:06.436Z,18.67
2022-12-05T01:45:37.044Z,19.10
2022-12-05T01:48:22.792Z,17.10
2022-12-05T01:50:50.876Z,17.30
2022-12-05T01:53:18.557Z,19.30
2022-12-05T01:55:47.862Z,19.03
2022-12-05T01:58:15.847Z,17.77
2022-12-05T02:00:42.978Z,18.40
2022-12-05T02:03:16.764Z,18.43
2022-12-05T02:05:45.996Z,17.83
2022-12-05T02:08:12.766Z,19.03
2022-12-05T02:10:43.212Z,19.77
2022-12-05T02:13:54.836Z,17.33
2022-12-05T02:16:30.684Z,16.47
2022-12-05T02:19:35.940Z,21.73
2022-12-05T02:22:34.397Z,18.00
2022-12-05T02:25:03.801Z,17.40
2022-12-05T02:27:47.219Z,19.97
2022-12-05T02:30:24.394Z,17.23
2022-12-05T02:33:09.994Z,17.97
2022-12-05T02:36:01.844Z,17.47
2022-12-05T02:38:38.732Z,16.80
2022-12-05T02:41:24.813Z,18.17
2022-12-05T02:44:04.748Z,18.53
2022-12-05T02:46:34.181Z,16.47
2022-12-05T02:49:05.917Z,17.47
2022-12-05T02:51:38.097Z,18.07
2022-12-05T02:54:08.750Z,18.03
2022-12-05T02:56:37.801Z,17.87
2022-12-05T02:59:04.495Z,17.03
2022-12-05T03:01:32.598Z,18.00
2022-12-05T03:04:02.519Z,17.50
2022-12-05T03:06:46.825Z,18.10
2022-12-05T03:09:19.664Z,17.07
2022-12-05T03:11:59.105Z,19.53
2022-12-05T03:14:35.165Z,17.67
2022-12-05T03:17:07.373Z,18.43
2022-12-05T03:19:55.669Z,18.47
2022-12-05T03:22:43.464Z,19.03
2022-12-05T03:25:13.214Z,17.23
2022-12-05T03:27:42.853Z,18.77
2022-12-05T03:30:16.789Z,18.07
2022-12-05T03:32:49.580Z,17.43
2022-12-05T03:35:41.110Z,17.57
2022-12-05T03:38:24.582Z,17.03
2022-12-05T03:40:53.563Z,17.33
2022-12-05T03:43:32.241Z,16.77
2022-12-05T03:46:05.394Z,19.20
2022-12-05T03:48:36.099Z,20.00
2022-12-05T03:51:05.085Z,18.57
2022-12-05T03:54:09.136Z,18.97
2022-12-05T03:56:47.102Z,17.23
2022-12-05T03:59:23.664Z,17.97
2022-12-05T04:01:53.037Z,16.77
2022-12-05T04:04:40.301Z,18.13
2022-12-05T04:07:08.967Z,17.07
2022-12-05T04:09:43.615Z,18.00
2022-12-05T04:12:17.413Z,17.43
2022-12-05T04:14:48.177Z,18.77
2022-12-05T04:17:36.050Z,17.57
2022-12-05T04:20:42.539Z,18.50
2022-12-05T04:23:10.082Z,18.50
2022-12-05T04:25:50.787Z,17.60
2022-12-05T04:28:57.769Z,16.87
2022-12-05T04:31:52.404Z,17.47
2022-12-05T04:34:21.422Z,17.37
2022-12-05T04:37:00.241Z,18.50
2022-12-05T04:39:51.160Z,18.93
2022-12-05T04:42:21.976Z,17.63
2022-12-05T04:44:53.574Z,17.97
2022-12-05T04:47:24.956Z,17.40
2022-12-05T04:49:54.032Z,16.40
2022-12-05T04:52:22.272Z,17.93
2022-12-05T04:54:51.517Z,19.10
2022-12-05T04:57:57.043Z,18.70
2022-12-05T05:00:24.090Z,17.07
2022-12-05T05:02:56.468Z,16.67
2022-12-05T05:05:23.619Z,17.00
2022-12-05T05:07:53.708Z,17.97
2022-12-05T05:10:35.269Z,17.93
2022-12-05T05:13:01.916Z,17.93
2022-12-05T05:15:28.984Z,17.80
2022-12-05T05:17:55.911Z,17.27
2022-12-05T05:20:26.852Z,19.27
2022-12-05T05:22:57.836Z,17.47
2022-12-05T05:25:25.162Z,17.57
2022-12-05T05:27:54.373Z,17.47
2022-12-05T05:30:22.399Z,18.10
2022-12-05T05:32:49.614Z,16.77
2022-12-05T05:35:16.588Z,17.10
2022-12-05T05:37:43.471Z,17.43
2022-12-05T05:40:12.413Z,18.27
2022-12-05T05:42:47.291Z,16.03
2022-12-05T05:45:15.260Z,15.57
2022-12-05T05:47:42.569Z,17.90
2022-12-05T05:50:10.418Z,17.53
2022-12-05T05:52:38.132Z,15.27
2022-12-05T05:55:06.423Z,17.17
2022-12-05T05:57:33.160Z,16.93
2022-12-05T06:00:00.183Z,17.03
2022-12-05T06:02:32.809Z,15.33
2022-12-05T06:04:59.557Z,16.63
2022-12-05T06:07:26.519Z,15.93
2022-12-05T06:09:53.233Z,16.47
2022-12-05T06:12:19.877Z,16.30
2022-12-05T06:14:49.991Z,17.00
2022-12-05T06:17:17.095Z,14.90
2022-12-05T06:19:43.741Z,15.70
2022-12-05T06:22:10.445Z,16.23
2022-12-05T06:24:37.078Z,15.13
2022-12-05T06:27:03.843Z,14.97
2022-12-05T06:29:33.791Z,14.17
2022-12-05T06:32:01.467Z,15.03
2022-12-05T06:34:28.484Z,15.07
2022-12-05T06:36:55.108Z,14.20
2022-12-05T06:39:21.777Z,13.33
2022-12-05T06:41:48.382Z,14.63
2022-12-05T06:44:15.030Z,12.90
2022-12-05T06:46:41.683Z,13.37
2022-12-05T06:49:13.412Z,15.47
2022-12-05T06:51:40.028Z,13.77
2022-12-05T06:54:06.719Z,14.63
2022-12-05T06:56:33.350Z,14.03
2022-12-05T06:59:00.013Z,14.00
2022-12-05T07:01:38.618Z,13.37
2022-12-05T07:04:07.081Z,23.43
2022-12-05T07:06:36.959Z,14.10
2022-12-05T07:09:04.861Z,15.13
2022-12-05T07:11:31.736Z,13.07
2022-12-05T07:13:58.398Z,13.87
2022-12-05T07:16:25.132Z,38.83
2022-12-05T07:18:52.028Z,18.63
2022-12-05T07:21:20.965Z,16.73
2022-12-05T07:23:50.071Z,13.43
2022-12-05T07:26:20.669Z,13.57
2022-12-05T07:28:47.634Z,14.43
2022-12-05T07:31:17.970Z,14.07
2022-12-05T07:33:45.442Z,13.43
2022-12-05T07:36:20.803Z,13.10
2022-12-05T07:38:47.758Z,12.60
2022-12-05T07:41:21.760Z,12.60
2022-12-05T07:43:48.470Z,12.83
2022-12-05T07:46:15.209Z,13.10
2022-12-05T07:48:42.145Z,13.80
2022-12-05T07:51:10.355Z,14.07
2022-12-05T07:53:38.282Z,16.83
2022-12-05T07:56:08.309Z,14.03
2022-12-05T07:58:35.786Z,13.70
2022-12-05T08:01:23.704Z,13.37
2022-12-05T08:03:52.709Z,14.33
2022-12-05T08:06:28.577Z,13.70
2022-12-05T08:08:56.056Z,12.67
2022-12-05T08:11:31.329Z,13.23
2022-12-05T08:13:58.867Z,14.00
2022-12-05T08:16:28.139Z,16.17
2022-12-05T08:19:03.811Z,12.57
2022-12-05T08:21:30.988Z,13.23
2022-12-05T08:24:00.031Z,12.83
2022-12-05T08:26:29.607Z,12.03
2022-12-05T08:29:05.174Z,12.73
2022-12-05T08:31:35.388Z,11.53
2022-12-05T08:34:02.561Z,12.47
2022-12-05T08:36:30.740Z,13.03
2022-12-05T08:38:59.442Z,12.37
2022-12-05T08:41:29.953Z,11.40
2022-12-05T08:44:05.779Z,12.33
2022-12-05T08:46:34.101Z,11.87
2022-12-05T08:49:01.696Z,12.67
2022-12-05T08:51:28.366Z,11.73
2022-12-05T08:53:56.281Z,13.23
2022-12-05T08:56:27.140Z,12.20
2022-12-05T08:58:58.492Z,12.40
2022-12-05T09:01:32.219Z,12.30
2022-12-05T09:04:00.582Z,12.83
2022-12-05T09:06:29.401Z,10.73
2022-12-05T09:09:00.518Z,11.77
2022-12-05T09:11:31.798Z,11.70
2022-12-05T09:13:59.893Z,11.97
2022-12-05T09:16:37.570Z,13.00
2022-12-05T09:19:05.827Z,11.03
2022-12-05T09:21:33.684Z,11.80
2022-12-05T09:24:00.623Z,11.57
2022-12-05T09:26:29.018Z,12.43
2022-12-05T09:28:55.981Z,10.80
2022-12-05T09:31:25.348Z,10.53
2022-12-05T09:33:52.894Z,11.70
2022-12-05T09:36:23.095Z,10.67
2022-12-05T09:38:50.838Z,11.67
2022-12-05T09:41:46.422Z,10.63
2022-12-05T09:44:21.275Z,10.87
2022-12-05T09:47:03.741Z,9.97
2022-12-05T09:49:32.299Z,10.93
2022-12-05T09:52:00.526Z,10.80
2022-12-05T09:54:28.106Z,10.73
2022-12-05T09:56:55.161Z,10.03
2022-12-05T09:59:21.859Z,9.93
2022-12-05T10:02:15.539Z,10.13
2022-12-05T10:05:00.364Z,10.80
2022-12-05T10:08:08.675Z,11.13
2022-12-05T10:10:56.798Z,9.43
2022-12-05T10:14:03.823Z,10.87
2022-12-05T10:16:42.712Z,9.40
2022-12-05T10:19:27.067Z,9.80
2022-12-05T10:22:04.336Z,9.80
2022-12-05T10:24:38.171Z,9.07
2022-12-05T10:27:08.548Z,9.17
2022-12-05T10:29:49.054Z,8.67
2022-12-05T10:32:48.086Z,8.97
2022-12-05T10:35:39.176Z,8.83
2022-12-05T10:38:28.060Z,9.00
2022-12-05T10:40:58.260Z,9.50
2022-12-05T10:43:30.999Z,10.00
2022-12-05T10:45:58.155Z,9.67
2022-12-05T10:48:25.495Z,9.20
2022-12-05T10:50:56.760Z,9.43
2022-12-05T10:53:49.514Z,8.90
2022-12-05T10:56:35.942Z,9.37
2022-12-05T10:59:03.121Z,8.87
2022-12-05T11:01:30.606Z,8.10
2022-12-05T11:04:00.951Z,9.53
2022-12-05T11:06:30.394Z,8.57
2022-12-05T11:09:17.129Z,8.53
2022-12-05T11:12:03.025Z,8.60
2022-12-05T11:14:31.474Z,9.00
2022-12-05T11:17:00.530Z,9.43
2022-12-05T11:19:36.123Z,9.30
2022-12-05T11:22:04.773Z,9.67
2022-12-05T11:24:33.829Z,9.57
2022-12-05T11:27:25.949Z,9.23
2022-12-05T11:30:14.936Z,8.77
2022-12-05T11:32:41.689Z,8.60
2022-12-05T11:35:28.292Z,8.10
2022-12-05T11:38:02.095Z,8.70
2022-12-05T11:40:39.584Z,8.40
2022-12-05T11:43:18.317Z,8.77
2022-12-05T11:46:12.134Z,8.20
2022-12-05T11:48:45.767Z,8.90
2022-12-05T11:51:39.765Z,9.67
2022-12-05T11:54:48.752Z,9.53
2022-12-05T11:57:13.389Z,8.30
2022-12-05T11:59:42.827Z,9.40
2022-12-05T12:02:31.175Z,8.70
2022-12-05T12:04:58.217Z,10.23
2022-12-05T12:07:46.077Z,9.63
2022-12-05T12:10:46.582Z,13.90
2022-12-05T12:13:13.158Z,10.37
2022-12-05T12:16:08.018Z,10.60
2022-12-05T12:19:10.885Z,9.03
2022-12-05T12:22:01.786Z,11.00
2022-12-05T12:24:40.158Z,10.87
2022-12-05T12:27:33.094Z,8.53
2022-12-05T12:30:17.899Z,8.57
2022-12-05T12:32:57.073Z,8.57
2022-12-05T12:35:28.066Z,8.13
2022-12-05T12:38:13.456Z,31.07
2022-12-05T12:40:40.128Z,24.27
2022-12-05T12:43:52.041Z,13.47
2022-12-05T12:46:25.370Z,10.40
2022-12-05T12:49:29.258Z,9.03
2022-12-05T12:52:18.758Z,9.13
2022-12-05T12:55:11.893Z,9.67
2022-12-05T12:58:16.145Z,9.03
2022-12-05T13:01:06.485Z,9.40
2022-12-05T13:04:02.416Z,9.37
2022-12-05T13:06:38.069Z,9.07
2022-12-05T13:09:14.735Z,9.93
2022-12-05T13:11:43.716Z,8.97
2022-12-05T13:14:14.186Z,8.83
2022-12-05T13:16:46.487Z,9.27
2022-12-05T13:19:23.716Z,8.77
2022-12-05T13:21:50.592Z,9.57
2022-12-05T13:24:21.941Z,8.90
2022-12-05T13:26:50.051Z,8.73
2022-12-05T13:29:31.666Z,9.33
2022-12-05T13:32:00.627Z,9.30
2022-12-05T13:34:28.481Z,8.37
2022-12-05T13:37:16.520Z,9.33
2022-12-05T13:40:10.865Z,10.33
2022-12-05T13:42:38.056Z,9.53
2022-12-05T13:45:04.834Z,10.03
2022-12-05T13:47:56.110Z,9.33
2022-12-05T13:50:34.309Z,10.13
2022-12-05T13:53:38.678Z,8.80
2022-12-05T13:56:24.667Z,8.90
2022-12-05T13:58:57.244Z,8.90
2022-12-05T14:01:27.029Z,8.20
2022-12-05T14:03:58.569Z,9.90
2022-12-05T14:06:40.165Z,8.97
2022-12-05T14:09:19.049Z,9.90
2022-12-05T14:12:10.181Z,10.00
2022-12-05T14:14:55.675Z,9.63
2022-12-05T14:17:29.215Z,9.43
2022-12-05T14:20:22.225Z,9.80
2022-12-05T14:22:58.581Z,9.80
2022-12-05T14:25:53.184Z,9.43
2022-12-05T14:28:56.422Z,9.53
2022-12-05T14:32:03.814Z,8.67
2022-12-05T14:34:33.582Z,8.77
2022-12-05T14:37:03.363Z,9.47
2022-12-05T14:39:44.313Z,9.70
2022-12-05T14:42:23.171Z,10.37
2022-12-05T14:44:52.745Z,9.00
2022-12-05T14:47:26.854Z,9.70
2022-12-05T14:49:56.037Z,9.20
2022-12-05T14:52:25.951Z,8.93
2022-12-05T14:54:58.160Z,9.10
2022-12-05T14:57:25.454Z,9.27
2022-12-05T15:00:00.538Z,8.70
2022-12-05T15:02:55.456Z,8.60
2022-12-05T15:05:30.386Z,8.23
2022-12-05T15:07:59.728Z,9.80
2022-12-05T15:10:34.596Z,9.07
2022-12-05T15:13:17.550Z,10.37
2022-12-05T15:15:52.598Z,10.60
2022-12-05T15:18:44.346Z,9.23
2022-12-05T15:21:22.670Z,9.40
2022-12-05T15:23:56.125Z,9.67
2022-12-05T15:26:58.934Z,10.23
2022-12-05T15:29:27.971Z,9.70
2022-12-05T15:31:59.217Z,10.20
2022-12-05T15:34:30.410Z,10.07
2022-12-05T15:37:33.648Z,11.00
2022-12-05T15:40:09.305Z,11.13
2022-12-05T15:42:40.961Z,9.43
2022-12-05T15:45:13.496Z,10.10
2022-12-05T15:47:45.561Z,10.00
2022-12-05T15:50:16.900Z,10.33
2022-12-05T15:52:53.840Z,10.00
2022-12-05T15:55:58.150Z,12.83
2022-12-05T15:58:40.646Z,10.00
2022-12-05T16:01:22.634Z,9.27
2022-12-05T16:04:00.257Z,9.37
2022-12-05T16:06:48.417Z,9.47
2022-12-05T16:09:25.987Z,9.20
2022-12-05T16:12:05.329Z,9.47
2022-12-05T16:14:58.986Z,9.90
2022-12-05T16:17:23.726Z,12.00
2022-12-05T16:19:50.560Z,12.67
2022-12-05T16:22:25.089Z,11.10
2022-12-05T16:24:58.691Z,10.33
2022-12-05T16:27:35.225Z,9.20
2022-12-05T16:30:09.008Z,9.73
2022-12-05T16:32:36.432Z,9.60
2022-12-05T16:35:03.985Z,10.40
2022-12-05T16:37:30.939Z,11.00
2022-12-05T16:39:57.964Z,11.33
2022-12-05T16:42:29.627Z,11.43
2022-12-05T16:45:03.579Z,10.93
2022-12-05T16:47:45.061Z,12.43
2022-12-05T16:50:34.780Z,11.30
2022-12-05T16:53:03.204Z,11.10
2022-12-05T16:55:34.318Z,11.13
2022-12-05T16:58:04.512Z,10.97
2022-12-05T17:00:31.943Z,11.70
2022-12-05T17:03:25.790Z,11.97
2022-12-05T17:05:45.422Z,13.70
2022-12-05T17:08:12.155Z,13.27
2022-12-05T17:10:39.578Z,12.70
2022-12-05T17:13:06.495Z,13.97
2022-12-05T17:15:33.207Z,14.27
2022-12-05T17:18:00.722Z,16.33
2022-12-05T17:20:27.345Z,14.83
2022-12-05T17:22:53.963Z,12.90
2022-12-05T17:25:30.947Z,18.73
2022-12-05T17:27:58.713Z,16.00
2022-12-05T17:30:25.725Z,12.30
2022-12-05T17:32:52.470Z,20.70
2022-12-05T17:35:21.914Z,12.60
2022-12-05T17:37:49.266Z,11.33
2022-12-05T17:40:16.359Z,11.07
2022-12-05T17:42:43.314Z,11.20
2022-12-05T17:45:13.082Z,12.07
2022-12-05T17:47:40.478Z,12.03
2022-12-05T17:50:12.404Z,12.83
2022-12-05T17:52:39.086Z,11.60
2022-12-05T17:55:06.765Z,11.93
2022-12-05T17:57:33.433Z,11.70
2022-12-05T18:00:00.081Z,12.13
2022-12-05T18:02:26.738Z,12.87
2022-12-05T18:04:53.439Z,15.27
2022-12-05T18:07:20.078Z,16.47
2022-12-05T18:09:46.730Z,16.70
2022-12-05T18:12:13.355Z,15.07
2022-12-05T18:14:39.955Z,27.23
2022-12-05T18:17:06.734Z,42.97
2022-12-05T18:19:34.232Z,46.93
2022-12-05T18:22:00.861Z,41.63
2022-12-05T18:24:27.503Z,40.57
2022-12-05T18:26:56.016Z,15.20
2022-12-05T18:29:23.558Z,11.93
2022-12-05T18:31:53.406Z,11.07
2022-12-05T18:34:20.101Z,11.33
2022-12-05T18:36:46.744Z,11.13
2022-12-05T18:39:14.568Z,10.80
2022-12-05T18:41:43.949Z,11.07
2022-12-05T18:44:10.658Z,9.73
2022-12-05T18:46:37.651Z,11.53
2022-12-05T18:49:04.656Z,10.63
2022-12-05T18:51:31.616Z,11.37
2022-12-05T18:53:58.697Z,10.93
2022-12-05T18:56:31.168Z,15.07
2022-12-05T18:59:02.903Z,19.07
2022-12-05T19:01:31.396Z,17.17
2022-12-05T19:03:59.820Z,15.87
2022-12-05T19:06:29.742Z,13.30
2022-12-05T19:08:58.577Z,10.97
2022-12-05T19:11:26.400Z,11.17
2022-12-05T19:14:01.808Z,9.50
2022-12-05T19:16:30.255Z,10.50
2022-12-05T19:18:59.085Z,11.27
2022-12-05T19:21:27.794Z,10.13
2022-12-05T19:23:55.669Z,9.77
2022-12-05T19:26:23.326Z,9.70
2022-12-05T19:28:50.411Z,10.17
2022-12-05T19:31:22.264Z,10.73
2022-12-05T19:33:53.438Z,10.37
2022-12-05T19:36:25.522Z,10.57
2022-12-05T19:38:54.171Z,10.17
2022-12-05T19:41:23.880Z,9.70
2022-12-05T19:43:51.681Z,11.20
2022-12-05T19:46:30.320Z,11.03
2022-12-05T19:48:59.975Z,10.50
2022-12-05T19:51:27.048Z,10.17
2022-12-05T19:53:53.740Z,10.17
2022-12-05T19:56:25.418Z,12.37
2022-12-05T19:58:53.638Z,9.97
2022-12-05T20:01:29.829Z,10.67
2022-12-05T20:03:59.309Z,11.07
2022-12-05T20:06:30.132Z,10.63
2022-12-05T20:08:59.458Z,10.53
2022-12-05T20:11:26.987Z,10.23
2022-12-05T20:13:55.605Z,10.83
2022-12-05T20:16:25.609Z,9.50
2022-12-05T20:18:52.859Z,9.30
2022-12-05T20:21:24.317Z,10.70
2022-12-05T20:23:51.920Z,9.77
2022-12-05T20:26:21.798Z,10.43
2022-12-05T20:28:48.867Z,9.97
2022-12-05T20:31:19.008Z,10.20
2022-12-05T20:33:46.018Z,10.43
2022-12-05T20:36:15.674Z,9.83
2022-12-05T20:38:42.825Z,8.70
2022-12-05T20:41:12.324Z,10.00
2022-12-05T20:43:39.063Z,8.67
2022-12-05T20:46:13.653Z,8.53
2022-12-05T20:48:40.928Z,9.00
2022-12-05T20:51:13.414Z,9.53
2022-12-05T20:53:42.330Z,9.77
2022-12-05T20:56:14.382Z,8.63
2022-12-05T20:58:43.414Z,9.50
2022-12-05T21:01:13.241Z,9.67
2022-12-05T21:03:42.178Z,9.30
2022-12-05T21:06:11.674Z,9.40
2022-12-05T21:08:38.802Z,9.43
2022-12-05T21:11:07.188Z,9.17
2022-12-05T21:13:34.716Z,8.50
2022-12-05T21:16:06.981Z,8.03
2022-12-05T21:18:33.846Z,8.87
2022-12-05T21:21:03.802Z,8.23
2022-12-05T21:23:30.894Z,9.23
2022-12-05T21:26:05.612Z,9.13
2022-12-05T21:28:33.907Z,7.80
2022-12-05T21:31:14.722Z,9.43
2022-12-05T21:33:42.995Z,7.67
2022-12-05T21:36:10.089Z,8.03
2022-12-05T21:38:36.720Z,7.90
2022-12-05T21:41:07.121Z,8.97
2022-12-05T21:43:35.131Z,10.10
2022-12-05T21:46:02.199Z,12.20
2022-12-05T21:48:28.958Z,9.37
2022-12-05T21:50:56.290Z,16.60
2022-12-05T21:53:23.288Z,11.43
2022-12-05T21:56:03.799Z,9.10
2022-12-05T21:58:30.871Z,9.23
2022-12-05T22:00:57.781Z,9.10
2022-12-05T22:03:24.398Z,9.37
2022-12-05T22:05:51.208Z,10.60
2022-12-05T22:08:17.911Z,10.03
2022-12-05T22:10:44.694Z,12.47
2022-12-05T22:13:11.371Z,13.87
2022-12-05T22:15:38.058Z,12.07
2022-12-05T22:18:04.888Z,11.53
2022-12-05T22:20:31.541Z,9.67
2022-12-05T22:22:58.166Z,10.50
2022-12-05T22:25:24.803Z,11.07
2022-12-05T22:27:51.485Z,14.97
2022-12-05T22:30:18.395Z,13.23
2022-12-05T22:32:45.094Z,13.40
2022-12-05T22:35:13.145Z,13.10
2022-12-05T22:37:39.786Z,13.40
2022-12-05T22:40:07.119Z,11.90
2022-12-05T22:42:33.780Z,11.70
2022-12-05T22:45:00.433Z,10.43
2022-12-05T22:47:27.086Z,8.97
2022-12-05T22:49:53.747Z,9.80
2022-12-05T22:52:20.545Z,9.33
2022-12-05T22:54:47.156Z,10.57
2022-12-05T22:57:13.737Z,11.30
2022-12-05T22:59:40.382Z,10.97
2022-12-05T23:02:07.250Z,12.37
2022-12-05T23:04:33.926Z,11.63
2022-12-05T23:07:00.609Z,11.80
2022-12-05T23:09:27.285Z,12.60
2022-12-05T23:11:53.935Z,10.60
2022-12-05T23:14:20.735Z,9.30
2022-12-05T23:16:47.474Z,10.27
2022-12-05T23:19:14.193Z,9.57
2022-12-05T23:21:40.936Z,10.03
2022-12-05T23:24:12.256Z,9.77
2022-12-05T23:26:44.909Z,9.97
2022-12-05T23:29:13.105Z,9.33
2022-12-05T23:31:40.461Z,8.93
2022-12-05T23:34:07.483Z,8.53
2022-12-05T23:36:34.973Z,9.13
2022-12-05T23:39:03.049Z,8.50
2022-12-05T23:41:30.026Z,8.77
2022-12-05T23:43:56.819Z,8.97
2022-12-05T23:46:26.246Z,8.80
2022-12-05T23:48:53.503Z,8.20
2022-12-05T23:51:30.366Z,8.13
2022-12-05T23:53:59.202Z,8.50
2022-12-05T23:56:31.627Z,8.20
2022-12-05T23:58:58.674Z,8.67
